This is the latest recevied weather packets stored in our database for station/object IK2CHZ-3. If no packets are shown the sender has not sent any weather packets the latest 10 day(s).
| Time | Temp. | Humidity | Pressure | Rain* | Wind** | Luminosity | Snow |
|---|---|---|---|---|---|---|---|
| 1777724224 | 22.22° C | 29% | 1023.5 hPa | 0 mm | - | - | - |
| 1777723563 | 22.78° C | 29% | 1023.6 hPa | 0 mm | - | - | - |
| 1777722903 | 22.22° C | 30% | 1023.7 hPa | 0 mm | - | - | - |
| 1777722244 | 21.67° C | 30% | 1024 hPa | 0 mm | - | - | - |
| 1777721583 | 21.67° C | 32% | 1024.2 hPa | 0 mm | - | - | - |
| 1777720924 | 22.78° C | 30% | 1024.3 hPa | 0 mm | - | - | - |
| 1777720263 | 22.78° C | 30% | 1024.4 hPa | 0 mm | - | - | - |
| 1777719604 | 21.67° C | 32% | 1024.7 hPa | 0 mm | - | - | - |
| 1777718944 | 21.67° C | 33% | 1025 hPa | 0 mm | - | - | - |
| 1777718282 | 21.11° C | 33% | 1025.2 hPa | 0 mm | - | - | - |
| 1777717623 | 21.11° C | 32% | 1025.3 hPa | 0 mm | - | - | - |
| 1777716964 | 21.11° C | 31% | 1025.3 hPa | 0 mm | - | - | - |
| 1777716302 | 20.56° C | 34% | 1025.5 hPa | 0 mm | - | - | - |
| 1777715643 | 20° C | 36% | 1025.6 hPa | 0 mm | - | - | - |
| 1777714984 | 20° C | 34% | 1025.8 hPa | 0 mm | - | - | - |
| 1777714324 | 20° C | 35% | 1025.9 hPa | 0 mm | - | - | - |
| 1777713664 | 19.44° C | 35% | 1026 hPa | 0 mm | - | - | - |
| 1777713003 | 20° C | 35% | 1026.1 hPa | 0 mm | - | - | - |
| 1777712343 | 19.44° C | 39% | 1026.2 hPa | 0 mm | - | - | - |
| 1777711682 | 19.44° C | 41% | 1026.2 hPa | 0 mm | - | - | - |
| 1777711023 | 18.89° C | 44% | 1026.3 hPa | 0 mm | - | - | - |
| 1777710364 | 18.89° C | 45% | 1026.3 hPa | 0 mm | - | - | - |
| 1777709703 | 18.33° C | 46% | 1026.3 hPa | 0 mm | - | - | - |
| 1777709043 | 18.33° C | 47% | 1026.4 hPa | 0 mm | - | - | - |
| 1777708383 | 17.78° C | 46% | 1026.5 hPa | 0 mm | - | - | - |
* Rain latest hour (hover to see other rain measurements)
** Current wind speed in m/s (hover to see current wind gust speed)